sensor_id;sensor_type;location;lat;lon;timestamp;pressure;altitude;pressure_sealevel;temperature;humidity
22572;BME280;11452;53.368;14.658;2022-08-21T00:04:15;100930.87;;;20.76;71.89
22572;BME280;11452;53.368;14.658;2022-08-21T00:09:22;100931.91;;;20.79;71.80
22572;BME280;11452;53.368;14.658;2022-08-21T00:14:28;100928.66;;;20.75;71.56
22572;BME280;11452;53.368;14.658;2022-08-21T00:19:35;100925.73;;;20.63;71.04
22572;BME280;11452;53.368;14.658;2022-08-21T00:24:41;100914.40;;;20.54;71.01
22572;BME280;11452;53.368;14.658;2022-08-21T00:29:46;100914.61;;;20.56;70.93
22572;BME280;11452;53.368;14.658;2022-08-21T00:34:52;100926.13;;;20.54;70.78
22572;BME280;11452;53.368;14.658;2022-08-21T00:39:58;100921.19;;;20.44;70.61
22572;BME280;11452;53.368;14.658;2022-08-21T00:45:05;100922.33;;;20.42;70.79
22572;BME280;11452;53.368;14.658;2022-08-21T00:50:12;100922.69;;;20.43;70.85
22572;BME280;11452;53.368;14.658;2022-08-21T00:55:20;100926.48;;;20.36;70.55
22572;BME280;11452;53.368;14.658;2022-08-21T01:00:30;100929.12;;;20.32;70.66
22572;BME280;11452;53.368;14.658;2022-08-21T01:05:36;100930.61;;;20.30;70.98
22572;BME280;11452;53.368;14.658;2022-08-21T01:10:43;100929.05;;;20.28;71.05
22572;BME280;11452;53.368;14.658;2022-08-21T01:15:50;100928.91;;;20.29;70.91
22572;BME280;11452;53.368;14.658;2022-08-21T01:21:08;100934.83;;;20.29;71.04
22572;BME280;11452;53.368;14.658;2022-08-21T01:26:20;100931.75;;;20.28;71.05
22572;BME280;11452;53.368;14.658;2022-08-21T01:31:27;100931.19;;;20.24;70.99
22572;BME280;11452;53.368;14.658;2022-08-21T01:36:32;100928.47;;;20.24;71.21
22572;BME280;11452;53.368;14.658;2022-08-21T01:41:38;100926.75;;;20.23;71.22
22572;BME280;11452;53.368;14.658;2022-08-21T01:46:44;100927.61;;;20.24;71.40
22572;BME280;11452;53.368;14.658;2022-08-21T01:51:49;100920.68;;;20.25;71.13
22572;BME280;11452;53.368;14.658;2022-08-21T01:56:55;100916.13;;;20.16;71.34
22572;BME280;11452;53.368;14.658;2022-08-21T02:02:01;100915.05;;;20.13;71.42
22572;BME280;11452;53.368;14.658;2022-08-21T02:07:07;100918.70;;;20.18;71.49
22572;BME280;11452;53.368;14.658;2022-08-21T02:12:13;100914.77;;;20.16;71.58
22572;BME280;11452;53.368;14.658;2022-08-21T02:17:19;100914.63;;;20.18;71.58
22572;BME280;11452;53.368;14.658;2022-08-21T02:22:24;100912.91;;;20.17;71.54
22572;BME280;11452;53.368;14.658;2022-08-21T02:27:37;100915.84;;;20.10;71.55
22572;BME280;11452;53.368;14.658;2022-08-21T02:32:40;100913.90;;;20.06;71.75
22572;BME280;11452;53.368;14.658;2022-08-21T02:37:50;100913.27;;;20.08;71.65
22572;BME280;11452;53.368;14.658;2022-08-21T02:42:56;100903.36;;;20.03;71.85
22572;BME280;11452;53.368;14.658;2022-08-21T02:48:05;100902.14;;;20.01;72.09
22572;BME280;11452;53.368;14.658;2022-08-21T02:53:12;100893.14;;;20.01;72.18
22572;BME280;11452;53.368;14.658;2022-08-21T02:58:24;100890.57;;;19.99;72.17
22572;BME280;11452;53.368;14.658;2022-08-21T03:03:29;100893.78;;;19.99;72.08
22572;BME280;11452;53.368;14.658;2022-08-21T03:08:35;100889.92;;;19.92;72.36
22572;BME280;11452;53.368;14.658;2022-08-21T03:13:42;100895.06;;;19.95;72.55
22572;BME280;11452;53.368;14.658;2022-08-21T03:18:48;100884.84;;;19.93;72.60
22572;BME280;11452;53.368;14.658;2022-08-21T03:23:53;100882.55;;;19.88;72.80
22572;BME280;11452;53.368;14.658;2022-08-21T03:28:59;100879.48;;;19.87;72.98
22572;BME280;11452;53.368;14.658;2022-08-21T03:34:04;100884.55;;;19.86;72.99
22572;BME280;11452;53.368;14.658;2022-08-21T03:39:10;100890.70;;;19.79;72.92
22572;BME280;11452;53.368;14.658;2022-08-21T03:44:15;100889.46;;;19.67;73.11
22572;BME280;11452;53.368;14.658;2022-08-21T03:49:21;100897.91;;;19.64;73.43
22572;BME280;11452;53.368;14.658;2022-08-21T03:54:27;100897.47;;;19.59;73.78
22572;BME280;11452;53.368;14.658;2022-08-21T03:59:34;100896.38;;;19.56;73.83
22572;BME280;11452;53.368;14.658;2022-08-21T04:04:40;100894.80;;;19.54;74.11
22572;BME280;11452;53.368;14.658;2022-08-21T04:09:46;100896.66;;;19.53;74.13
22572;BME280;11452;53.368;14.658;2022-08-21T04:14:51;100894.95;;;19.37;74.22
22572;BME280;11452;53.368;14.658;2022-08-21T04:19:57;100901.77;;;19.47;74.87
22572;BME280;11452;53.368;14.658;2022-08-21T04:25:04;100900.83;;;19.42;74.92
22572;BME280;11452;53.368;14.658;2022-08-21T04:30:10;100908.33;;;19.44;74.98
22572;BME280;11452;53.368;14.658;2022-08-21T04:35:20;100917.91;;;19.48;75.12
22572;BME280;11452;53.368;14.658;2022-08-21T04:40:26;100915.50;;;19.55;75.44
22572;BME280;11452;53.368;14.658;2022-08-21T04:45:39;100909.45;;;19.57;75.44
22572;BME280;11452;53.368;14.658;2022-08-21T04:50:47;100916.14;;;19.53;75.00
22572;BME280;11452;53.368;14.658;2022-08-21T04:55:54;100915.10;;;19.44;75.31
22572;BME280;11452;53.368;14.658;2022-08-21T05:01:03;100918.63;;;19.50;75.76
22572;BME280;11452;53.368;14.658;2022-08-21T05:06:11;100917.08;;;19.57;76.02
22572;BME280;11452;53.368;14.658;2022-08-21T05:11:18;100923.50;;;19.56;75.63
22572;BME280;11452;53.368;14.658;2022-08-21T05:16:24;100915.69;;;19.48;75.87
22572;BME280;11452;53.368;14.658;2022-08-21T05:21:38;100918.22;;;19.55;76.05
22572;BME280;11452;53.368;14.658;2022-08-21T05:26:43;100919.20;;;19.54;76.46
22572;BME280;11452;53.368;14.658;2022-08-21T05:31:51;100915.86;;;19.56;76.26
22572;BME280;11452;53.368;14.658;2022-08-21T05:36:56;100916.36;;;19.55;76.04
22572;BME280;11452;53.368;14.658;2022-08-21T05:42:04;100914.14;;;19.55;76.34
22572;BME280;11452;53.368;14.658;2022-08-21T05:47:11;100911.61;;;19.63;76.58
22572;BME280;11452;53.368;14.658;2022-08-21T05:52:20;100921.16;;;19.67;76.91
22572;BME280;11452;53.368;14.658;2022-08-21T05:57:26;100923.53;;;19.76;76.88
22572;BME280;11452;53.368;14.658;2022-08-21T06:02:32;100924.34;;;19.82;77.26
22572;BME280;11452;53.368;14.658;2022-08-21T06:07:37;100926.91;;;19.93;77.30
22572;BME280;11452;53.368;14.658;2022-08-21T06:12:43;100930.75;;;19.90;76.88
22572;BME280;11452;53.368;14.658;2022-08-21T06:17:49;100935.92;;;20.03;77.33
22572;BME280;11452;53.368;14.658;2022-08-21T06:22:54;100936.27;;;20.14;77.72
22572;BME280;11452;53.368;14.658;2022-08-21T06:28:06;100941.85;;;20.22;76.84
22572;BME280;11452;53.368;14.658;2022-08-21T06:33:12;100946.19;;;20.28;77.42
22572;BME280;11452;53.368;14.658;2022-08-21T06:38:19;100939.42;;;20.19;77.05
22572;BME280;11452;53.368;14.658;2022-08-21T06:43:24;100936.27;;;20.33;76.94
22572;BME280;11452;53.368;14.658;2022-08-21T06:48:32;100937.12;;;20.53;77.56
22572;BME280;11452;53.368;14.658;2022-08-21T06:53:38;100939.95;;;20.61;77.19
22572;BME280;11452;53.368;14.658;2022-08-21T06:58:44;100942.95;;;20.77;77.38
22572;BME280;11452;53.368;14.658;2022-08-21T07:03:49;100948.84;;;20.86;76.93
22572;BME280;11452;53.368;14.658;2022-08-21T07:08:55;100947.77;;;20.93;77.04
22572;BME280;11452;53.368;14.658;2022-08-21T07:14:02;100954.41;;;20.94;76.08
22572;BME280;11452;53.368;14.658;2022-08-21T07:19:08;100951.06;;;21.10;76.39
22572;BME280;11452;53.368;14.658;2022-08-21T07:24:14;100952.06;;;21.09;75.45
22572;BME280;11452;53.368;14.658;2022-08-21T07:29:19;100949.56;;;21.12;76.39
22572;BME280;11452;53.368;14.658;2022-08-21T07:34:25;100949.70;;;21.10;76.16
22572;BME280;11452;53.368;14.658;2022-08-21T07:39:30;100949.27;;;21.15;75.67
22572;BME280;11452;53.368;14.658;2022-08-21T07:44:36;100948.95;;;21.27;76.10
22572;BME280;11452;53.368;14.658;2022-08-21T07:49:42;100953.61;;;21.35;75.66
22572;BME280;11452;53.368;14.658;2022-08-21T07:54:48;100958.81;;;21.42;75.10
22572;BME280;11452;53.368;14.658;2022-08-21T07:59:54;100953.48;;;21.50;75.83
22572;BME280;11452;53.368;14.658;2022-08-21T08:05:02;100954.38;;;21.55;75.36
22572;BME280;11452;53.368;14.658;2022-08-21T08:10:09;100948.94;;;21.68;76.04
22572;BME280;11452;53.368;14.658;2022-08-21T08:15:17;100944.33;;;21.83;74.85
22572;BME280;11452;53.368;14.658;2022-08-21T08:20:24;100947.09;;;21.87;74.25
22572;BME280;11452;53.368;14.658;2022-08-21T08:25:31;100949.22;;;21.79;74.65
22572;BME280;11452;53.368;14.658;2022-08-21T08:30:38;100947.09;;;22.00;74.50
22572;BME280;11452;53.368;14.658;2022-08-21T08:35:46;100959.39;;;22.22;75.59
22572;BME280;11452;53.368;14.658;2022-08-21T08:41:08;100958.98;;;22.35;73.66
22572;BME280;11452;53.368;14.658;2022-08-21T08:46:15;100964.23;;;22.32;73.12
22572;BME280;11452;53.368;14.658;2022-08-21T08:56:33;100968.50;;;22.53;73.62
22572;BME280;11452;53.368;14.658;2022-08-21T09:01:39;100956.70;;;22.44;71.87
22572;BME280;11452;53.368;14.658;2022-08-21T09:07:08;100962.86;;;22.50;72.40
22572;BME280;11452;53.368;14.658;2022-08-21T09:12:30;100967.02;;;22.58;71.73
22572;BME280;11452;53.368;14.658;2022-08-21T09:28:44;100968.33;;;22.94;71.78
22572;BME280;11452;53.368;14.658;2022-08-21T09:33:56;100964.14;;;23.07;71.18
22572;BME280;11452;53.368;14.658;2022-08-21T09:38:57;100971.77;;;23.30;70.87
22572;BME280;11452;53.368;14.658;2022-08-21T09:44:04;100967.62;;;23.18;68.75
22572;BME280;11452;53.368;14.658;2022-08-21T09:49:11;100977.84;;;23.16;69.19
22572;BME280;11452;53.368;14.658;2022-08-21T09:54:18;100978.83;;;23.10;69.79
22572;BME280;11452;53.368;14.658;2022-08-21T09:59:34;100977.30;;;23.46;69.48
22572;BME280;11452;53.368;14.658;2022-08-21T10:04:41;100982.58;;;23.73;69.37
22572;BME280;11452;53.368;14.658;2022-08-21T10:10:08;100984.27;;;23.70;67.83
22572;BME280;11452;53.368;14.658;2022-08-21T10:15:23;100974.41;;;23.86;68.07
22572;BME280;11452;53.368;14.658;2022-08-21T10:20:47;100977.48;;;23.95;67.87
22572;BME280;11452;53.368;14.658;2022-08-21T10:26:30;100984.31;;;23.95;66.41
22572;BME280;11452;53.368;14.658;2022-08-21T10:37:31;100985.23;;;24.20;65.82
22572;BME280;11452;53.368;14.658;2022-08-21T10:47:57;100983.41;;;24.28;63.93
22572;BME280;11452;53.368;14.658;2022-08-21T10:58:34;100992.59;;;24.23;63.59
22572;BME280;11452;53.368;14.658;2022-08-21T11:03:49;100993.61;;;24.22;62.57
22572;BME280;11452;53.368;14.658;2022-08-21T11:08:58;100985.91;;;24.09;61.99
22572;BME280;11452;53.368;14.658;2022-08-21T11:14:19;100993.95;;;24.23;61.68
22572;BME280;11452;53.368;14.658;2022-08-21T11:19:33;100987.45;;;24.20;60.88
22572;BME280;11452;53.368;14.658;2022-08-21T11:24:45;100992.28;;;24.26;60.38
22572;BME280;11452;53.368;14.658;2022-08-21T11:29:54;100995.02;;;24.38;60.17
22572;BME280;11452;53.368;14.658;2022-08-21T11:45:55;100997.24;;;24.71;58.22
22572;BME280;11452;53.368;14.658;2022-08-21T11:51:12;101000.66;;;24.69;57.81
22572;BME280;11452;53.368;14.658;2022-08-21T11:56:25;100991.44;;;24.54;55.77
22572;BME280;11452;53.368;14.658;2022-08-21T12:01:24;100994.86;;;24.76;57.06
22572;BME280;11452;53.368;14.658;2022-08-21T12:06:33;100989.91;;;25.00;55.98
22572;BME280;11452;53.368;14.658;2022-08-21T12:11:48;100997.05;;;25.09;55.18
22572;BME280;11452;53.368;14.658;2022-08-21T12:17:03;101000.81;;;25.16;54.64
22572;BME280;11452;53.368;14.658;2022-08-21T12:27:22;100993.75;;;25.30;53.65
22572;BME280;11452;53.368;14.658;2022-08-21T12:32:54;100994.61;;;25.31;52.76
22572;BME280;11452;53.368;14.658;2022-08-21T12:38:09;101004.47;;;25.48;52.26
22572;BME280;11452;53.368;14.658;2022-08-21T12:43:20;101001.27;;;25.36;52.47
22572;BME280;11452;53.368;14.658;2022-08-21T12:48:35;100999.57;;;25.31;52.34
22572;BME280;11452;53.368;14.658;2022-08-21T12:53:48;100994.95;;;25.28;51.92
22572;BME280;11452;53.368;14.658;2022-08-21T12:58:59;101002.48;;;25.30;51.53
22572;BME280;11452;53.368;14.658;2022-08-21T13:04:08;100999.22;;;25.38;50.86
22572;BME280;11452;53.368;14.658;2022-08-21T13:09:18;100993.59;;;25.24;50.53
22572;BME280;11452;53.368;14.658;2022-08-21T13:14:39;100990.09;;;25.54;50.62
22572;BME280;11452;53.368;14.658;2022-08-21T13:20:21;100987.67;;;25.63;50.38
22572;BME280;11452;53.368;14.658;2022-08-21T13:25:30;100986.61;;;25.72;50.27
22572;BME280;11452;53.368;14.658;2022-08-21T13:30:38;100988.20;;;25.54;49.29
22572;BME280;11452;53.368;14.658;2022-08-21T13:41:08;100988.50;;;25.16;49.90
22572;BME280;11452;53.368;14.658;2022-08-21T13:46:10;100984.57;;;25.11;50.32
22572;BME280;11452;53.368;14.658;2022-08-21T13:51:17;100995.89;;;25.04;49.69
22572;BME280;11452;53.368;14.658;2022-08-21T14:07:03;100993.48;;;24.80;51.00
22572;BME280;11452;53.368;14.658;2022-08-21T14:12:28;100994.84;;;24.68;50.65
22572;BME280;11452;53.368;14.658;2022-08-21T14:17:39;100999.63;;;24.70;50.96
22572;BME280;11452;53.368;14.658;2022-08-21T14:22:47;100995.72;;;24.57;51.49
22572;BME280;11452;53.368;14.658;2022-08-21T14:33:28;101009.05;;;24.64;51.31
22572;BME280;11452;53.368;14.658;2022-08-21T14:38:36;101014.34;;;24.45;51.53
22572;BME280;11452;53.368;14.658;2022-08-21T14:43:43;101006.30;;;24.51;51.57
22572;BME280;11452;53.368;14.658;2022-08-21T14:48:49;101009.05;;;24.47;51.95
22572;BME280;11452;53.368;14.658;2022-08-21T14:53:55;100998.11;;;24.60;52.02
22572;BME280;11452;53.368;14.658;2022-08-21T14:59:03;100994.19;;;24.66;52.14
22572;BME280;11452;53.368;14.658;2022-08-21T15:04:09;101002.72;;;24.83;51.64
22572;BME280;11452;53.368;14.658;2022-08-21T15:09:15;101005.26;;;24.93;51.56
22572;BME280;11452;53.368;14.658;2022-08-21T15:14:23;101003.59;;;25.04;51.64
22572;BME280;11452;53.368;14.658;2022-08-21T15:19:30;101004.27;;;24.98;50.78
22572;BME280;11452;53.368;14.658;2022-08-21T15:24:35;101003.04;;;24.93;50.74
22572;BME280;11452;53.368;14.658;2022-08-21T15:29:42;101012.13;;;24.97;51.32
22572;BME280;11452;53.368;14.658;2022-08-21T15:34:48;101002.52;;;24.89;51.10
22572;BME280;11452;53.368;14.658;2022-08-21T15:39:54;101009.70;;;24.90;50.96
22572;BME280;11452;53.368;14.658;2022-08-21T15:45:00;101012.95;;;24.90;50.88
22572;BME280;11452;53.368;14.658;2022-08-21T15:50:08;101008.70;;;24.75;51.55
22572;BME280;11452;53.368;14.658;2022-08-21T15:55:14;101017.75;;;24.71;51.99
22572;BME280;11452;53.368;14.658;2022-08-21T16:00:22;101019.29;;;24.74;52.54
22572;BME280;11452;53.368;14.658;2022-08-21T16:05:28;101020.48;;;24.75;52.96
22572;BME280;11452;53.368;14.658;2022-08-21T16:10:35;101026.64;;;24.61;52.68
22572;BME280;11452;53.368;14.658;2022-08-21T16:15:42;101017.91;;;24.49;53.12
22572;BME280;11452;53.368;14.658;2022-08-21T16:20:48;101016.91;;;24.63;53.82
22572;BME280;11452;53.368;14.658;2022-08-21T16:25:54;101021.86;;;24.79;53.67
22572;BME280;11452;53.368;14.658;2022-08-21T16:31:01;101016.39;;;24.79;54.01
22572;BME280;11452;53.368;14.658;2022-08-21T16:36:08;101024.28;;;25.03;53.93
22572;BME280;11452;53.368;14.658;2022-08-21T16:41:16;101018.28;;;24.95;53.72
22572;BME280;11452;53.368;14.658;2022-08-21T16:46:23;101018.42;;;24.94;53.42
22572;BME280;11452;53.368;14.658;2022-08-21T16:51:29;101016.74;;;24.84;54.02
22572;BME280;11452;53.368;14.658;2022-08-21T16:56:35;101018.08;;;24.89;53.98
22572;BME280;11452;53.368;14.658;2022-08-21T17:01:43;101015.34;;;24.89;54.03
22572;BME280;11452;53.368;14.658;2022-08-21T17:06:49;101018.96;;;24.85;53.58
22572;BME280;11452;53.368;14.658;2022-08-21T17:11:56;101020.66;;;24.70;53.38
22572;BME280;11452;53.368;14.658;2022-08-21T17:17:03;101019.30;;;24.62;53.39
22572;BME280;11452;53.368;14.658;2022-08-21T17:22:10;101032.45;;;24.58;53.56
22572;BME280;11452;53.368;14.658;2022-08-21T17:27:17;101031.23;;;24.53;53.40
22572;BME280;11452;53.368;14.658;2022-08-21T17:32:26;101038.25;;;24.43;53.51
22572;BME280;11452;53.368;14.658;2022-08-21T17:37:32;101034.80;;;24.33;53.42
22572;BME280;11452;53.368;14.658;2022-08-21T17:42:39;101034.57;;;24.18;53.70
22572;BME280;11452;53.368;14.658;2022-08-21T17:47:45;101032.17;;;24.15;54.17
22572;BME280;11452;53.368;14.658;2022-08-21T17:52:51;101021.91;;;24.05;54.23
22572;BME280;11452;53.368;14.658;2022-08-21T17:57:57;101025.48;;;23.93;54.68
22572;BME280;11452;53.368;14.658;2022-08-21T18:03:08;101033.81;;;23.88;54.94
22572;BME280;11452;53.368;14.658;2022-08-21T18:08:15;101034.78;;;23.78;55.14
22572;BME280;11452;53.368;14.658;2022-08-21T18:13:27;101040.20;;;23.66;55.52
22572;BME280;11452;53.368;14.658;2022-08-21T18:18:43;101042.53;;;23.57;56.01
22572;BME280;11452;53.368;14.658;2022-08-21T18:23:44;101047.02;;;23.36;56.50
22572;BME280;11452;53.368;14.658;2022-08-21T18:28:49;101051.64;;;23.14;57.05
22572;BME280;11452;53.368;14.658;2022-08-21T18:33:56;101052.19;;;22.96;57.65
22572;BME280;11452;53.368;14.658;2022-08-21T18:39:02;101049.19;;;22.81;58.36
22572;BME280;11452;53.368;14.658;2022-08-21T18:44:10;101054.63;;;22.63;58.73
22572;BME280;11452;53.368;14.658;2022-08-21T18:49:17;101049.50;;;22.46;59.17
22572;BME280;11452;53.368;14.658;2022-08-21T18:54:23;101055.94;;;22.28;59.71
22572;BME280;11452;53.368;14.658;2022-08-21T19:04:35;101059.34;;;21.98;61.02
22572;BME280;11452;53.368;14.658;2022-08-21T19:09:43;101067.16;;;21.84;61.23
22572;BME280;11452;53.368;14.658;2022-08-21T19:14:50;101072.55;;;21.66;61.72
22572;BME280;11452;53.368;14.658;2022-08-21T19:20:00;101064.67;;;21.49;62.22
22572;BME280;11452;53.368;14.658;2022-08-21T19:25:08;101059.17;;;21.35;62.61
22572;BME280;11452;53.368;14.658;2022-08-21T19:30:14;101051.00;;;21.22;63.22
22572;BME280;11452;53.368;14.658;2022-08-21T19:35:20;101040.77;;;21.10;63.69
22572;BME280;11452;53.368;14.658;2022-08-21T19:40:27;101035.80;;;20.96;63.92
22572;BME280;11452;53.368;14.658;2022-08-21T19:45:34;101040.45;;;20.80;64.36
22572;BME280;11452;53.368;14.658;2022-08-21T19:50:42;101037.83;;;20.65;64.88
22572;BME280;11452;53.368;14.658;2022-08-21T19:55:48;101038.62;;;20.52;65.29
22572;BME280;11452;53.368;14.658;2022-08-21T20:00:55;101038.42;;;20.39;65.73
22572;BME280;11452;53.368;14.658;2022-08-21T20:06:01;101043.43;;;20.29;66.21
22572;BME280;11452;53.368;14.658;2022-08-21T20:11:06;101049.72;;;20.20;66.62
22572;BME280;11452;53.368;14.658;2022-08-21T20:16:13;101058.83;;;20.09;67.10
22572;BME280;11452;53.368;14.658;2022-08-21T20:21:20;101063.89;;;19.98;67.57
22572;BME280;11452;53.368;14.658;2022-08-21T20:26:26;101065.02;;;19.96;67.99
22572;BME280;11452;53.368;14.658;2022-08-21T20:31:32;101056.56;;;19.89;68.33
22572;BME280;11452;53.368;14.658;2022-08-21T20:36:39;101060.98;;;19.81;68.68
22572;BME280;11452;53.368;14.658;2022-08-21T20:41:46;101057.09;;;19.74;69.07
22572;BME280;11452;53.368;14.658;2022-08-21T20:46:52;101060.02;;;19.66;69.31
22572;BME280;11452;53.368;14.658;2022-08-21T20:51:58;101055.52;;;19.56;69.60
22572;BME280;11452;53.368;14.658;2022-08-21T21:02:38;101056.49;;;19.40;70.29
22572;BME280;11452;53.368;14.658;2022-08-21T21:13:09;101050.80;;;19.27;70.90
22572;BME280;11452;53.368;14.658;2022-08-21T21:18:17;101055.27;;;19.23;71.32
22572;BME280;11452;53.368;14.658;2022-08-21T21:23:31;101054.80;;;19.18;71.50
22572;BME280;11452;53.368;14.658;2022-08-21T21:28:47;101055.98;;;19.10;71.79
22572;BME280;11452;53.368;14.658;2022-08-21T21:33:51;101055.77;;;19.01;72.17
22572;BME280;11452;53.368;14.658;2022-08-21T21:49:40;101057.36;;;18.83;73.09
22572;BME280;11452;53.368;14.658;2022-08-21T22:00:08;101061.36;;;18.74;73.34
22572;BME280;11452;53.368;14.658;2022-08-21T22:05:48;101058.80;;;18.66;73.85
22572;BME280;11452;53.368;14.658;2022-08-21T22:11:57;101055.36;;;18.64;74.12
22572;BME280;11452;53.368;14.658;2022-08-21T22:16:11;101047.13;;;18.60;74.35
22572;BME280;11452;53.368;14.658;2022-08-21T22:21:19;101057.81;;;18.56;74.57
22572;BME280;11452;53.368;14.658;2022-08-21T22:26:37;101055.52;;;18.52;74.85
22572;BME280;11452;53.368;14.658;2022-08-21T22:31:38;101064.13;;;18.51;75.08
22572;BME280;11452;53.368;14.658;2022-08-21T22:36:48;101056.75;;;18.53;75.32
22572;BME280;11452;53.368;14.658;2022-08-21T22:41:55;101064.99;;;18.52;75.45
22572;BME280;11452;53.368;14.658;2022-08-21T22:47:02;101066.11;;;18.49;75.19
22572;BME280;11452;53.368;14.658;2022-08-21T22:52:22;101064.27;;;18.44;75.46
22572;BME280;11452;53.368;14.658;2022-08-21T22:57:32;101061.45;;;18.40;75.58
22572;BME280;11452;53.368;14.658;2022-08-21T23:08:17;101072.00;;;18.17;75.96
22572;BME280;11452;53.368;14.658;2022-08-21T23:13:22;101064.25;;;18.12;75.96
22572;BME280;11452;53.368;14.658;2022-08-21T23:30:33;101071.79;;;17.86;76.90
22572;BME280;11452;53.368;14.658;2022-08-21T23:35:07;101073.39;;;17.89;77.20
22572;BME280;11452;53.368;14.658;2022-08-21T23:50:59;101074.00;;;17.81;77.50
